Croydon, Utah
Current Conditions -  °F | °C
As of 8:58 AM on Monday 26 Jan 2015 (Local Time) from KHIF Reporting Station
Clear Clear  
Wind Chill: 29°   Ceiling: Unl
Heat Index: 36°   Visibility: 10mi
Dew Point: 28°   Wind: 9mph
Humidity: 73%   Direction: 110°ESE
Pressure: 30.39"   Gusts: NA
Location:  41.07°N, 111.51°W
Report Text: KHIF 261558Z AUTO 11008KT 10SM CLR 02/M02 A3039 RMK AO2 SLP295 T00241020
Loading
Personal Weather Stations






























Interactive Weather Map New forecast layout! Learn more

10-Day Weather Forecast

Advertisements
Track Severe Weather on mobile